createdAt,value
2023-04-23T00:00:56.175Z,65.8315
2023-04-23T00:01:57.818Z,66.5032
2023-04-23T00:02:59.873Z,66.7998
2023-04-23T00:04:01.474Z,66.7785
2023-04-23T00:05:02.784Z,66.3638
2023-04-23T00:06:04.467Z,67.3164
2023-04-23T00:07:06.013Z,67.3244
2023-04-23T00:08:07.794Z,66.8011
2023-04-23T00:09:09.335Z,66.8398
2023-04-23T00:10:11.007Z,66.6490
2023-04-23T00:11:13.192Z,66.0029
2023-04-23T00:12:14.282Z,66.5777
2023-04-23T00:13:15.909Z,66.5154
2023-04-23T00:14:17.629Z,66.5441
2023-04-23T00:15:19.719Z,66.4636
2023-04-23T00:16:20.887Z,66.4885
2023-04-23T00:17:22.492Z,66.3269
2023-04-23T00:18:24.154Z,66.3612
2023-04-23T00:19:25.828Z,66.3544
2023-04-23T00:20:27.405Z,66.6213
2023-04-23T00:21:29.030Z,67.2379
2023-04-23T00:22:30.737Z,66.2672
2023-04-23T00:23:32.447Z,66.9511
2023-04-23T00:24:34.330Z,66.4059
2023-04-23T00:25:35.590Z,66.3673
2023-04-23T00:26:37.313Z,66.1905
2023-04-23T00:27:38.931Z,65.9355
2023-04-23T00:28:41.340Z,66.1411
2023-04-23T00:29:42.215Z,65.3948
2023-04-23T00:30:43.883Z,65.5488
2023-04-23T00:31:45.485Z,66.3202
2023-04-23T00:32:47.330Z,65.8798
2023-04-23T00:33:48.736Z,66.0784
2023-04-23T00:34:50.770Z,66.3505
2023-04-23T00:35:52.018Z,66.6513
2023-04-23T00:36:53.733Z,66.4950
2023-04-23T00:37:55.290Z,66.2393
2023-04-23T00:38:57.027Z,66.2359
2023-04-23T00:39:58.764Z,66.2280
2023-04-23T00:41:00.353Z,65.9400
2023-04-23T00:42:01.878Z,65.6715
2023-04-23T00:43:03.568Z,66.2173
2023-04-23T00:44:05.325Z,66.2710
2023-04-23T00:45:06.861Z,65.7790
2023-04-23T00:46:09.314Z,65.9326
2023-04-23T00:47:10.072Z,65.8254
2023-04-23T00:48:11.805Z,66.1261
2023-04-23T00:49:14.323Z,66.4287
2023-04-23T00:50:15.163Z,66.5320
2023-04-23T00:51:17.370Z,66.9475
2023-04-23T00:52:18.359Z,66.5827
2023-04-23T00:53:19.982Z,66.3538
2023-04-23T00:54:21.570Z,66.3912
2023-04-23T00:55:23.331Z,65.7633
2023-04-23T00:56:24.960Z,66.2993
2023-04-23T00:57:26.594Z,65.6366
2023-04-23T00:58:28.140Z,65.8585
2023-04-23T00:59:29.817Z,65.8406
2023-04-23T01:00:32.319Z,65.9444
2023-04-23T01:01:33.251Z,66.0284
2023-04-23T01:02:34.812Z,65.8114
2023-04-23T01:03:36.682Z,65.9673
2023-04-23T01:04:38.177Z,67.0138
2023-04-23T01:05:39.853Z,67.1492
2023-04-23T01:06:41.472Z,66.3071
2023-04-23T01:07:43.079Z,65.6718
2023-04-23T01:08:44.727Z,66.4670
2023-04-23T01:09:46.396Z,65.7021
2023-04-23T01:10:48.102Z,66.2551
2023-04-23T01:11:49.755Z,65.9140
2023-04-23T01:12:51.277Z,65.8702
2023-04-23T01:13:52.991Z,65.4643
2023-04-23T01:14:54.538Z,66.5249
2023-04-23T01:15:56.268Z,66.4597
2023-04-23T01:16:58.874Z,66.3854
2023-04-23T01:17:59.593Z,66.2173
2023-04-23T01:19:01.084Z,66.5561
2023-04-23T01:20:02.746Z,66.3814
2023-04-23T01:21:04.467Z,65.8502
2023-04-23T01:22:06.139Z,65.3901
2023-04-23T01:23:07.763Z,64.4710
2023-04-23T01:24:09.367Z,65.1929
2023-04-23T01:25:10.977Z,65.5040
2023-04-23T01:26:13.592Z,65.6998
2023-04-23T01:27:14.341Z,66.1292
2023-04-23T01:28:15.956Z,65.8742
2023-04-23T01:29:17.599Z,65.0172
2023-04-23T01:30:19.232Z,65.6464
2023-04-23T01:31:20.966Z,65.0222
2023-04-23T01:32:22.647Z,64.3122
2023-04-23T01:33:24.118Z,64.4940
2023-04-23T01:34:26.778Z,65.0158
2023-04-23T01:35:27.343Z,65.0939
2023-04-23T01:36:29.359Z,64.9923
2023-04-23T01:37:30.818Z,64.7488
2023-04-23T01:38:33.295Z,64.3451
2023-04-23T01:39:33.996Z,63.2224
2023-04-23T01:40:36.014Z,62.7240
2023-04-23T01:41:37.237Z,62.8944
2023-04-23T01:42:38.944Z,63.7079
2023-04-23T01:43:40.558Z,63.8130
2023-04-23T01:44:42.568Z,64.5807
2023-04-23T01:45:43.914Z,64.1944
2023-04-23T01:46:45.432Z,65.4764
2023-04-23T01:47:47.224Z,65.8817
2023-04-23T01:48:48.762Z,66.3706
2023-04-23T01:49:50.397Z,66.0410
2023-04-23T01:50:52.141Z,64.5225
2023-04-23T01:51:53.672Z,65.5816
2023-04-23T01:52:55.406Z,66.1903
2023-04-23T01:53:56.918Z,65.0778
2023-04-23T01:54:59.038Z,64.1379
2023-04-23T01:56:00.236Z,65.4183
2023-04-23T01:57:01.880Z,65.9897
2023-04-23T01:58:03.505Z,65.1715
2023-04-23T01:59:06.466Z,65.6009
2023-04-23T02:00:06.760Z,64.9541
2023-04-23T02:01:09.492Z,65.5460
2023-04-23T02:02:10.069Z,64.8893
2023-04-23T02:03:11.892Z,65.0718
2023-04-23T02:04:13.380Z,64.8841
2023-04-23T02:05:15.181Z,64.6058
2023-04-23T02:06:16.613Z,65.3642
2023-04-23T02:07:18.286Z,63.2194
2023-04-23T02:08:19.938Z,63.3452
2023-04-23T02:09:22.649Z,64.5186
2023-04-23T02:10:23.163Z,64.8987
2023-04-23T02:11:25.096Z,64.8265
2023-04-23T02:12:26.584Z,65.7329
2023-04-23T02:13:28.514Z,65.5869
2023-04-23T02:14:29.756Z,65.6465
2023-04-23T02:15:31.487Z,65.2934
2023-04-23T02:16:33.136Z,65.2366
2023-04-23T02:17:34.784Z,64.6416
2023-04-23T02:18:36.366Z,65.1839
2023-04-23T02:19:38.083Z,64.5815
2023-04-23T02:20:39.666Z,64.9307
2023-04-23T02:21:41.422Z,65.1993
2023-04-23T02:22:43.882Z,64.4818
2023-04-23T02:23:44.664Z,64.3603
2023-04-23T02:24:46.306Z,65.0310
2023-04-23T02:25:48.004Z,65.7245
2023-04-23T02:26:49.549Z,65.7278
2023-04-23T02:27:51.218Z,66.0447
2023-04-23T02:28:53.010Z,65.7416
2023-04-23T02:29:54.499Z,65.3588
2023-04-23T02:30:56.090Z,64.8031
2023-04-23T02:31:57.930Z,64.2012
2023-04-23T02:32:59.437Z,62.7882
2023-04-23T02:34:01.029Z,62.2440
2023-04-23T02:35:02.645Z,63.0213
2023-04-23T02:36:04.308Z,63.0765
2023-04-23T02:37:06.957Z,64.5758
2023-04-23T02:38:07.521Z,65.4654
2023-04-23T02:39:09.102Z,66.3200
2023-04-23T02:40:10.907Z,66.5255
2023-04-23T02:41:12.928Z,65.7308
2023-04-23T02:42:14.204Z,65.3145
2023-04-23T02:43:15.783Z,64.9949
2023-04-23T02:44:17.426Z,65.0119
2023-04-23T02:45:19.088Z,64.6710
2023-04-23T02:46:20.780Z,64.0753
2023-04-23T02:47:22.447Z,63.5597
2023-04-23T02:48:24.031Z,63.2685
2023-04-23T02:49:25.650Z,62.7121
2023-04-23T02:50:27.305Z,63.3921
2023-04-23T02:51:29.509Z,62.9630
2023-04-23T02:52:30.579Z,63.4152
2023-04-23T02:53:32.217Z,63.6097
2023-04-23T02:54:33.829Z,64.4595
2023-04-23T02:55:35.500Z,64.9588
2023-04-23T02:56:37.144Z,64.9067
2023-04-23T02:57:38.932Z,64.4272
2023-04-23T02:58:40.392Z,64.0612
2023-04-23T02:59:42.118Z,63.0831
2023-04-23T03:00:43.725Z,62.8754
2023-04-23T03:01:45.394Z,63.2112
2023-04-23T03:02:47.126Z,63.2084
2023-04-23T03:03:48.869Z,62.6900
2023-04-23T03:04:50.256Z,63.4007
2023-04-23T03:05:51.926Z,63.1645
2023-04-23T03:06:53.639Z,63.8353
2023-04-23T03:07:55.936Z,65.3575
2023-04-23T03:08:56.812Z,64.9607
2023-04-23T03:09:58.539Z,64.9130
2023-04-23T03:11:00.167Z,64.5196
2023-04-23T03:12:02.486Z,64.2642
2023-04-23T03:13:03.454Z,62.9309
2023-04-23T03:14:05.140Z,62.4225
2023-04-23T03:15:06.706Z,63.0017
2023-04-23T03:16:08.934Z,62.3573
2023-04-23T03:17:10.060Z,61.9689
2023-04-23T03:18:11.716Z,62.8852
2023-04-23T03:19:13.345Z,63.5403
2023-04-23T03:20:15.914Z,64.3602
2023-04-23T03:21:16.557Z,65.1806
2023-04-23T03:22:18.307Z,64.7304
2023-04-23T03:23:19.926Z,63.8998
2023-04-23T03:24:21.559Z,63.9955
2023-04-23T03:25:23.117Z,64.0835
2023-04-23T03:26:24.828Z,63.9285
2023-04-23T03:27:26.481Z,62.5691
2023-04-23T03:28:28.162Z,63.1911
2023-04-23T03:29:29.707Z,63.1712
2023-04-23T03:30:31.381Z,63.1015
2023-04-23T03:31:32.975Z,63.7051
2023-04-23T03:32:34.714Z,64.8232
2023-04-23T03:33:36.341Z,65.8683
2023-04-23T03:34:37.952Z,64.8313
2023-04-23T03:35:39.594Z,64.6212
2023-04-23T03:36:41.204Z,64.1219
2023-04-23T03:37:42.907Z,64.8022
2023-04-23T03:38:44.596Z,63.1422
2023-04-23T03:39:46.147Z,62.0239
2023-04-23T03:40:47.843Z,62.1724
2023-04-23T03:41:49.418Z,62.8975
2023-04-23T03:42:51.169Z,63.6463
2023-04-23T03:43:53.430Z,64.3419
2023-04-23T03:44:54.371Z,64.1683
2023-04-23T03:45:56.104Z,64.3644
2023-04-23T03:46:58.402Z,64.3642
2023-04-23T03:47:59.428Z,63.6250
2023-04-23T03:49:01.454Z,64.8291
2023-04-23T03:50:02.604Z,64.8798
2023-04-23T03:51:04.229Z,64.5102
2023-04-23T03:52:05.908Z,63.7364
2023-04-23T03:53:07.596Z,63.1264
2023-04-23T03:54:09.128Z,62.9464
2023-04-23T03:55:10.787Z,62.4701
2023-04-23T03:56:12.397Z,61.7117
2023-04-23T03:57:14.016Z,61.7626
2023-04-23T03:58:15.700Z,61.3045
2023-04-23T03:59:17.333Z,60.9376
2023-04-23T04:00:19.032Z,60.4668
2023-04-23T04:01:20.594Z,59.8446
2023-04-23T04:02:22.408Z,59.3505
2023-04-23T04:03:25.185Z,58.7344
2023-04-23T04:04:25.832Z,58.6493
2023-04-23T04:05:27.309Z,58.3630
2023-04-23T04:06:28.914Z,58.5522
2023-04-23T04:07:30.464Z,58.5474
2023-04-23T04:08:32.133Z,58.2950
2023-04-23T04:09:33.764Z,58.0446
2023-04-23T04:10:35.932Z,57.3934
2023-04-23T04:11:37.410Z,57.0672
2023-04-23T04:12:38.739Z,56.5133
2023-04-23T04:13:40.370Z,56.3237
2023-04-23T04:14:42.301Z,56.3327
2023-04-23T04:15:44.459Z,56.1773
2023-04-23T04:16:45.368Z,56.3411
2023-04-23T04:17:47.017Z,56.3831
2023-04-23T04:18:48.724Z,56.3759
2023-04-23T04:19:50.606Z,56.5738
2023-04-23T04:20:52.031Z,56.0385
2023-04-23T04:21:53.630Z,55.8216
2023-04-23T04:22:55.295Z,55.5521
2023-04-23T04:23:57.980Z,55.2108
2023-04-23T04:24:58.454Z,55.0748
2023-04-23T04:26:00.203Z,54.9347
2023-04-23T04:27:01.869Z,55.1140
2023-04-23T04:28:03.554Z,54.8321
2023-04-23T04:29:05.126Z,54.9646
2023-04-23T04:30:06.880Z,54.8383
2023-04-23T04:31:08.505Z,54.8886
2023-04-23T04:32:10.098Z,54.7377
2023-04-23T04:33:11.770Z,54.7097
2023-04-23T04:34:13.449Z,54.6408
2023-04-23T04:35:14.968Z,54.5103
2023-04-23T04:36:16.703Z,54.2700
2023-04-23T04:37:18.279Z,54.3814
2023-04-23T04:38:19.960Z,54.1795
2023-04-23T04:39:21.583Z,54.3585
2023-04-23T04:40:23.278Z,54.2546
2023-04-23T04:41:24.920Z,54.2949
2023-04-23T04:42:26.534Z,54.1830
2023-04-23T04:43:28.227Z,54.3331
2023-04-23T04:44:29.796Z,54.3738
2023-04-23T04:45:31.509Z,54.6454
2023-04-23T04:46:33.131Z,54.7168
2023-04-23T04:47:34.776Z,54.8014
2023-04-23T04:48:37.377Z,54.9130
2023-04-23T04:49:38.089Z,54.8133
2023-04-23T04:50:39.680Z,54.9286
2023-04-23T04:51:41.293Z,54.8977
2023-04-23T04:52:42.983Z,55.0691
2023-04-23T04:53:44.589Z,55.1482
2023-04-23T04:54:46.226Z,55.2922
2023-04-23T04:55:47.907Z,55.3236
2023-04-23T04:56:49.627Z,55.0895
2023-04-23T04:57:52.200Z,55.1449
2023-04-23T04:58:53.776Z,55.3375
2023-04-23T04:59:55.350Z,55.3801
2023-04-23T05:00:56.098Z,55.2932
2023-04-23T05:01:57.793Z,55.2354
2023-04-23T05:02:59.535Z,55.2068
2023-04-23T05:04:01.109Z,55.2346
2023-04-23T05:05:02.619Z,55.1616
2023-04-23T05:06:04.302Z,55.3187
2023-04-23T05:07:05.925Z,55.4358
2023-04-23T05:08:07.574Z,55.0758
2023-04-23T05:09:09.173Z,54.6442
2023-04-23T05:10:10.931Z,54.7077
2023-04-23T05:11:12.498Z,54.9595
2023-04-23T05:12:14.238Z,55.1145
2023-04-23T05:13:15.855Z,55.3210
2023-04-23T05:14:17.459Z,55.1691
2023-04-23T05:15:19.108Z,55.5085
2023-04-23T05:16:20.871Z,55.5280
2023-04-23T05:17:23.075Z,55.5121
2023-04-23T05:18:24.120Z,55.5237
2023-04-23T05:19:25.647Z,55.6091
2023-04-23T05:20:27.352Z,55.5677
2023-04-23T05:21:29.022Z,55.4528
2023-04-23T05:22:30.670Z,55.4322
2023-04-23T05:23:32.213Z,55.6096
2023-04-23T05:24:33.948Z,55.6323
2023-04-23T05:25:35.580Z,55.7083
2023-04-23T05:26:37.267Z,55.7271
2023-04-23T05:27:38.893Z,55.8643
2023-04-23T05:28:40.517Z,55.8888
2023-04-23T05:29:42.118Z,55.7066
2023-04-23T05:30:43.804Z,55.6517
2023-04-23T05:31:45.498Z,55.7601
2023-04-23T05:32:47.198Z,55.8542
2023-04-23T05:33:50.504Z,55.9148
2023-04-23T05:34:50.372Z,55.8890
2023-04-23T05:35:52.019Z,55.8857
2023-04-23T05:36:53.772Z,55.9843
2023-04-23T05:37:55.373Z,55.9708
2023-04-23T05:38:56.996Z,56.0278
2023-04-23T05:39:58.577Z,56.0702
2023-04-23T05:41:00.291Z,55.9908
2023-04-23T05:42:02.405Z,56.0381
2023-04-23T05:43:03.579Z,56.0091
2023-04-23T05:44:05.185Z,56.0534
2023-04-23T05:45:08.864Z,56.0441
2023-04-23T05:46:08.512Z,56.0122
2023-04-23T05:47:10.203Z,55.9944
2023-04-23T05:48:11.843Z,55.9435
2023-04-23T05:49:13.468Z,55.9090
2023-04-23T05:50:15.092Z,55.9184
2023-04-23T05:51:16.788Z,56.0486
2023-04-23T05:52:18.434Z,56.1559
2023-04-23T05:53:20.162Z,56.1944
2023-04-23T05:54:21.653Z,56.2045
2023-04-23T05:55:23.338Z,56.1965
2023-04-23T05:56:25.058Z,56.2164
2023-04-23T05:57:27.525Z,56.2529
2023-04-23T05:58:28.346Z,56.3026
2023-04-23T05:59:29.978Z,56.2966
2023-04-23T06:00:31.630Z,56.2806
2023-04-23T06:01:33.205Z,56.3338
2023-04-23T06:02:35.042Z,56.2987
2023-04-23T06:03:36.793Z,56.3164
2023-04-23T06:04:38.361Z,56.3389
2023-04-23T06:05:39.835Z,56.2688
2023-04-23T06:06:41.484Z,56.3103
2023-04-23T06:07:43.180Z,56.2469
2023-04-23T06:08:45.063Z,56.2739
2023-04-23T06:09:46.401Z,56.2724
2023-04-23T06:10:48.108Z,56.1953
2023-04-23T06:11:49.683Z,56.2502
2023-04-23T06:12:51.592Z,56.2588
2023-04-23T06:13:53.060Z,56.2619
2023-04-23T06:14:54.689Z,56.2879
2023-04-23T06:15:56.319Z,56.3567
2023-04-23T06:16:57.981Z,56.3732
2023-04-23T06:17:59.666Z,56.3691
2023-04-23T06:19:01.588Z,56.3070
2023-04-23T06:20:02.904Z,56.2975
2023-04-23T06:21:04.566Z,56.3061
2023-04-23T06:22:06.164Z,56.2762
2023-04-23T06:23:07.866Z,56.2758
2023-04-23T06:24:09.504Z,56.2775
2023-04-23T06:25:11.180Z,56.4052
2023-04-23T06:26:12.722Z,56.4682
2023-04-23T06:27:14.421Z,56.4997
2023-04-23T06:28:16.163Z,56.4151
2023-04-23T06:29:17.758Z,56.4682
2023-04-23T06:30:19.374Z,56.4538
2023-04-23T06:31:21.061Z,56.4244
2023-04-23T06:32:22.630Z,56.4194
2023-04-23T06:33:24.284Z,56.3600
2023-04-23T06:34:26.131Z,56.3758
2023-04-23T06:35:27.635Z,56.4208
2023-04-23T06:36:29.166Z,56.4451
2023-04-23T06:37:31.029Z,56.4494
2023-04-23T06:38:32.428Z,56.3757
2023-04-23T06:39:34.183Z,56.3012
2023-04-23T06:40:35.718Z,56.3147
2023-04-23T06:41:37.337Z,56.3473
2023-04-23T06:42:40.096Z,56.3769
2023-04-23T06:43:40.887Z,56.3208
2023-04-23T06:44:42.675Z,56.3745
2023-04-23T06:45:44.232Z,56.2951
2023-04-23T06:46:45.826Z,56.2913
2023-04-23T06:47:48.212Z,56.3322
2023-04-23T06:48:48.999Z,56.4180
2023-04-23T06:49:50.736Z,56.3358
2023-04-23T06:50:52.379Z,56.3473
2023-04-23T06:51:56.975Z,56.3543
2023-04-23T06:52:55.476Z,56.3157
2023-04-23T06:53:57.193Z,56.3870
2023-04-23T06:54:59.862Z,56.3494
2023-04-23T06:56:00.461Z,56.4331
2023-04-23T06:57:02.179Z,56.2695
2023-04-23T06:58:03.753Z,55.2887
2023-04-23T06:59:05.356Z,54.4594
2023-04-23T07:00:07.109Z,50.5899
2023-04-23T07:01:08.701Z,46.6006
2023-04-23T07:02:10.369Z,52.5510
2023-04-23T07:03:11.997Z,48.3916
2023-04-23T07:04:13.669Z,48.6816
2023-04-23T07:05:15.272Z,49.2716
2023-04-23T07:06:18.603Z,49.6148
2023-04-23T07:07:18.508Z,49.9766
2023-04-23T07:08:20.205Z,50.3933
2023-04-23T07:09:21.818Z,50.8514
2023-04-23T07:10:23.560Z,51.0699
2023-04-23T07:11:25.142Z,51.4577
2023-04-23T07:12:26.830Z,51.8315
2023-04-23T07:13:28.442Z,51.0303
2023-04-23T07:14:30.087Z,44.9153
2023-04-23T07:15:31.845Z,46.2725
2023-04-23T07:16:33.480Z,48.8110
2023-04-23T07:17:34.992Z,47.5170
2023-04-23T07:18:36.657Z,48.1061
2023-04-23T07:19:38.288Z,48.5232
2023-04-23T07:20:39.989Z,49.0132
2023-04-23T07:21:41.578Z,49.4077
2023-04-23T07:22:43.232Z,49.8114
2023-04-23T07:23:44.865Z,50.1187
2023-04-23T07:24:46.522Z,50.3382
2023-04-23T07:25:48.183Z,51.4373
2023-04-23T07:26:49.858Z,46.5668
2023-04-23T07:27:51.401Z,44.2066
2023-04-23T07:28:53.183Z,48.2890
2023-04-23T07:29:54.704Z,46.6452
2023-04-23T07:30:56.454Z,46.5888
2023-04-23T07:31:58.077Z,47.0676
2023-04-23T07:32:59.718Z,47.4992
2023-04-23T07:34:01.392Z,47.8747
2023-04-23T07:35:02.975Z,48.1444
2023-04-23T07:36:04.598Z,48.4941
2023-04-23T07:37:06.316Z,44.6979
2023-04-23T07:38:07.860Z,42.6300
2023-04-23T07:39:09.545Z,42.4700
2023-04-23T07:40:11.189Z,45.5767
2023-04-23T07:41:12.914Z,45.5099
2023-04-23T07:42:15.068Z,45.7792
2023-04-23T07:43:16.142Z,46.3970
2023-04-23T07:44:17.761Z,46.6845
2023-04-23T07:45:19.500Z,47.6323
2023-04-23T07:46:21.146Z,47.8036
2023-04-23T07:47:23.002Z,48.2388
2023-04-23T07:48:24.413Z,50.5800
2023-04-23T07:49:26.021Z,43.8547
2023-04-23T07:50:27.637Z,42.9575
2023-04-23T07:51:29.351Z,52.1953
2023-04-23T07:52:30.957Z,49.6318
2023-04-23T07:53:32.577Z,47.2817
2023-04-23T07:54:34.207Z,46.8218
2023-04-23T07:55:35.917Z,47.7901
2023-04-23T07:56:37.597Z,48.6637
2023-04-23T07:57:39.241Z,47.5504
2023-04-23T07:58:40.815Z,48.4254
2023-04-23T07:59:42.863Z,48.8401
2023-04-23T08:00:44.088Z,48.8108
2023-04-23T08:01:45.820Z,50.0014
2023-04-23T08:02:47.614Z,49.2669
2023-04-23T08:03:49.440Z,49.4798
2023-04-23T08:04:50.827Z,49.5657
2023-04-23T08:05:52.336Z,49.9492
2023-04-23T08:06:54.045Z,50.1426
2023-04-23T08:07:55.645Z,50.5295
2023-04-23T08:08:57.308Z,50.7107
2023-04-23T08:09:58.900Z,51.4639
2023-04-23T08:11:00.547Z,51.9716
2023-04-23T08:12:02.236Z,51.6139
2023-04-23T08:13:03.902Z,52.0047
2023-04-23T08:14:05.496Z,52.0279
2023-04-23T08:15:07.220Z,52.9613
2023-04-23T08:16:08.790Z,52.5658
2023-04-23T08:17:10.463Z,52.9041
2023-04-23T08:18:12.107Z,52.8370
2023-04-23T08:19:13.706Z,52.9195
2023-04-23T08:20:15.302Z,53.1823
2023-04-23T08:21:17.031Z,53.6066
2023-04-23T08:22:20.293Z,53.7163
2023-04-23T08:23:20.353Z,53.5645
2023-04-23T08:24:22.456Z,53.6037
2023-04-23T08:25:23.603Z,53.8158
2023-04-23T08:26:25.214Z,53.8828
2023-04-23T08:27:26.971Z,54.1063
2023-04-23T08:28:28.593Z,54.0666
2023-04-23T08:29:30.208Z,54.2760
2023-04-23T08:30:31.789Z,54.3776
2023-04-23T08:31:33.509Z,54.4380
2023-04-23T08:32:35.158Z,54.5305
2023-04-23T08:33:36.875Z,54.7907
2023-04-23T08:34:38.442Z,54.5963
2023-04-23T08:35:40.078Z,54.8110
2023-04-23T08:36:41.649Z,55.0104
2023-04-23T08:37:43.444Z,54.8813
2023-04-23T08:38:44.989Z,55.1778
2023-04-23T08:39:46.686Z,55.0007
2023-04-23T08:40:48.227Z,55.1941
2023-04-23T08:41:49.926Z,55.3283
2023-04-23T08:42:51.644Z,55.5138
2023-04-23T08:43:53.238Z,55.7043
2023-04-23T08:44:54.801Z,55.9115
2023-04-23T08:45:56.510Z,55.6150
2023-04-23T08:46:58.248Z,55.8706
2023-04-23T08:48:02.134Z,55.9279
2023-04-23T08:49:01.452Z,55.8887
2023-04-23T08:50:03.074Z,55.9439
2023-04-23T08:51:04.690Z,56.0336
2023-04-23T08:52:06.380Z,55.9473
2023-04-23T08:53:08.065Z,52.6305
2023-04-23T08:54:09.679Z,51.8887
2023-04-23T08:55:11.255Z,51.9793
2023-04-23T08:56:12.940Z,49.8345
2023-04-23T08:57:14.574Z,51.1537
2023-04-23T08:58:16.279Z,54.1133
2023-04-23T08:59:17.911Z,55.9305
2023-04-23T09:00:19.455Z,57.2281
2023-04-23T09:01:21.297Z,58.4835
2023-04-23T09:02:22.986Z,59.4210
2023-04-23T09:03:24.547Z,56.9370
2023-04-23T09:04:26.164Z,56.4840
2023-04-23T09:05:27.710Z,56.7649
2023-04-23T09:06:29.422Z,54.7249
2023-04-23T09:07:31.023Z,51.9717
2023-04-23T09:08:32.753Z,51.1547
2023-04-23T09:09:34.641Z,50.0045
2023-04-23T09:10:35.974Z,52.6654
2023-04-23T09:11:37.577Z,51.6671
2023-04-23T09:12:39.276Z,54.0415
2023-04-23T09:13:40.950Z,52.0223
2023-04-23T09:14:42.852Z,52.1756
2023-04-23T09:15:44.169Z,53.7507
2023-04-23T09:16:45.922Z,54.3943
2023-04-23T09:17:47.529Z,55.3805
2023-04-23T09:18:49.194Z,53.1958
2023-04-23T09:19:50.858Z,54.3969
2023-04-23T09:20:52.528Z,54.0229
2023-04-23T09:21:54.046Z,54.2786
2023-04-23T09:22:55.727Z,52.3594
2023-04-23T09:23:57.449Z,52.5432
2023-04-23T09:24:59.090Z,52.5305
2023-04-23T09:26:00.627Z,52.9095
2023-04-23T09:27:02.267Z,52.9861
2023-04-23T09:28:03.958Z,53.8088
2023-04-23T09:29:05.609Z,52.9352
2023-04-23T09:30:07.294Z,53.1671
2023-04-23T09:31:08.879Z,54.5185
2023-04-23T09:32:10.586Z,55.1951
2023-04-23T09:33:12.151Z,55.6463
2023-04-23T09:34:14.206Z,55.1731
2023-04-23T09:35:15.554Z,56.3791
2023-04-23T09:36:17.233Z,54.3769
2023-04-23T09:37:18.783Z,53.9986
2023-04-23T09:38:20.428Z,55.1043
2023-04-23T09:39:22.065Z,54.9990
2023-04-23T09:40:23.749Z,55.3232
2023-04-23T09:41:25.304Z,54.8778
2023-04-23T09:42:26.986Z,55.2929
2023-04-23T09:43:28.575Z,55.6730
2023-04-23T09:44:30.353Z,54.8992
2023-04-23T09:45:31.945Z,55.1324
2023-04-23T09:46:33.562Z,55.4191
2023-04-23T09:47:35.252Z,55.3633
2023-04-23T09:48:36.879Z,55.6873
2023-04-23T09:49:38.534Z,55.7009
2023-04-23T09:50:40.245Z,55.4220
2023-04-23T09:51:41.769Z,56.0269
2023-04-23T09:52:43.431Z,54.9802
2023-04-23T09:53:45.056Z,55.5773
2023-04-23T09:54:47.214Z,52.4142
2023-04-23T09:55:48.397Z,51.2201
2023-04-23T09:56:50.076Z,47.7581
2023-04-23T09:57:51.611Z,45.1667
2023-04-23T09:58:53.366Z,44.3125
2023-04-23T10:00:03.754Z,43.7988
2023-04-23T10:00:56.638Z,43.9055
2023-04-23T10:01:58.289Z,44.3463
2023-04-23T10:03:00.168Z,44.1477
2023-04-23T10:04:01.694Z,45.1353
2023-04-23T10:05:21.468Z,45.2499
2023-04-23T10:06:05.264Z,46.1435
2023-04-23T10:07:17.923Z,47.0961
2023-04-23T10:08:08.232Z,47.0212
2023-04-23T10:09:09.704Z,47.5722
2023-04-23T10:10:11.463Z,49.7957
2023-04-23T10:11:20.734Z,50.4456
2023-04-23T10:13:16.302Z,52.7022
2023-04-23T10:14:17.962Z,49.8719
2023-04-23T10:15:19.684Z,50.4791
2023-04-23T10:16:23.284Z,50.6654
2023-04-23T10:17:22.932Z,50.3248
2023-04-23T10:18:24.492Z,53.0319
2023-04-23T10:19:27.171Z,49.3112
2023-04-23T10:20:27.878Z,47.6459
2023-04-23T10:21:36.620Z,45.4070
2023-04-23T10:22:31.067Z,44.7929
2023-04-23T10:23:32.802Z,45.1510
2023-04-23T10:24:34.371Z,43.9227
2023-04-23T10:25:36.729Z,44.5470
2023-04-23T10:26:38.190Z,42.7349
2023-04-23T10:27:51.118Z,45.9237
2023-04-23T10:28:41.042Z,44.1035
2023-04-23T10:29:43.017Z,47.8287
2023-04-23T10:30:44.681Z,46.8833
2023-04-23T10:31:45.980Z,48.0688
2023-04-23T10:32:47.561Z,44.7827
2023-04-23T10:33:58.204Z,46.1290
2023-04-23T10:34:50.931Z,42.5523
2023-04-23T10:35:52.601Z,45.1296
2023-04-23T10:36:54.181Z,44.3042
2023-04-23T10:37:55.844Z,44.7748
2023-04-23T10:38:59.106Z,45.5077
2023-04-23T10:39:59.132Z,44.9167
2023-04-23T10:41:00.801Z,44.4261
2023-04-23T10:42:02.466Z,45.0505
2023-04-23T10:43:04.026Z,48.4816
2023-04-23T10:44:05.723Z,50.5122
2023-04-23T10:45:16.613Z,48.8365
2023-04-23T10:46:09.139Z,48.2670
2023-04-23T10:47:10.738Z,47.7266
2023-04-23T10:48:12.460Z,49.7055
2023-04-23T10:49:14.016Z,48.8052
2023-04-23T10:50:15.744Z,48.0608
2023-04-23T10:51:56.084Z,46.0596
2023-04-23T10:52:21.495Z,44.5453
2023-04-23T10:53:20.604Z,49.2652
2023-04-23T10:54:22.319Z,46.7194
2023-04-23T10:55:23.969Z,50.1092
2023-04-23T10:56:25.789Z,44.2835
2023-04-23T10:57:27.271Z,46.2972
2023-04-23T10:58:28.943Z,47.1614
2023-04-23T10:59:30.465Z,49.9299
2023-04-23T11:00:32.164Z,45.6272
2023-04-23T11:01:33.827Z,44.9626
2023-04-23T11:02:35.607Z,45.3192
2023-04-23T11:03:39.646Z,47.2154
2023-04-23T11:04:38.834Z,46.4503
2023-04-23T11:05:40.389Z,45.3147
2023-04-23T11:06:42.089Z,45.0962
2023-04-23T11:07:43.750Z,48.1317
2023-04-23T11:08:45.426Z,45.3328
2023-04-23T11:09:47.013Z,45.6908
2023-04-23T11:10:48.667Z,47.8163
2023-04-23T11:11:50.288Z,46.8255
2023-04-23T11:12:52.027Z,43.0084
2023-04-23T11:13:53.621Z,46.1959
2023-04-23T11:14:55.307Z,45.7636
2023-04-23T11:15:56.907Z,48.3767
2023-04-23T11:16:58.530Z,48.3327
2023-04-23T11:18:00.216Z,47.6565
2023-04-23T11:19:01.911Z,47.6989
2023-04-23T11:20:03.558Z,43.0274
2023-04-23T11:21:05.187Z,37.2789
2023-04-23T11:22:06.767Z,42.8366
2023-04-23T11:23:08.462Z,41.7196
2023-04-23T11:24:10.097Z,38.7882
2023-04-23T11:25:11.842Z,39.6476
2023-04-23T11:26:13.424Z,41.9546
2023-04-23T11:27:15.044Z,43.0474
2023-04-23T11:28:16.694Z,41.1835
2023-04-23T11:29:18.339Z,41.0936
2023-04-23T11:30:19.962Z,42.4492
2023-04-23T11:31:21.656Z,46.9081
2023-04-23T11:32:23.298Z,41.4611
2023-04-23T11:33:24.927Z,45.7278
2023-04-23T11:34:26.604Z,47.6794
2023-04-23T11:35:28.167Z,47.8048
2023-04-23T11:36:30.699Z,46.2215
2023-04-23T11:37:31.480Z,44.8772
2023-04-23T11:38:33.056Z,45.5029
2023-04-23T11:39:34.733Z,45.2443
2023-04-23T11:40:36.643Z,43.3829
2023-04-23T11:41:38.087Z,44.2140
2023-04-23T11:42:39.664Z,44.3655
2023-04-23T11:43:42.212Z,46.5594
2023-04-23T11:44:42.972Z,41.7071
2023-04-23T11:45:44.701Z,43.4643
2023-04-23T11:46:46.272Z,41.3485
2023-04-23T11:47:47.962Z,44.4727
2023-04-23T11:48:49.562Z,44.1873
2023-04-23T11:49:51.271Z,43.3320
2023-04-23T11:50:53.130Z,43.7433
2023-04-23T11:51:54.611Z,39.9942
2023-04-23T11:52:56.201Z,37.2179
2023-04-23T11:53:57.906Z,40.7607
2023-04-23T11:54:59.467Z,43.1726
2023-04-23T11:56:01.219Z,39.1476
2023-04-23T11:57:02.788Z,38.6053
2023-04-23T11:58:04.472Z,42.5233
2023-04-23T11:59:06.069Z,41.1369
2023-04-23T12:00:07.763Z,45.8028
2023-04-23T12:01:09.448Z,45.4643
2023-04-23T12:02:11.100Z,41.7322
2023-04-23T12:03:12.936Z,40.1814
2023-04-23T12:04:14.662Z,38.9752
2023-04-23T12:05:16.154Z,37.6936
2023-04-23T12:06:17.883Z,39.4917
2023-04-23T12:07:26.341Z,40.7818
2023-04-23T12:08:21.140Z,41.4151
2023-04-23T12:09:23.725Z,41.6402
2023-04-23T12:10:24.392Z,45.0488
2023-04-23T12:11:26.122Z,40.8687
2023-04-23T12:12:27.738Z,35.9170
2023-04-23T12:13:29.407Z,41.6606
2023-04-23T12:14:31.176Z,42.7736
2023-04-23T12:15:32.780Z,43.5383
2023-04-23T12:16:34.271Z,45.5693
2023-04-23T12:17:35.997Z,42.0729
2023-04-23T12:18:37.680Z,45.6944
2023-04-23T12:19:39.380Z,44.6384
2023-04-23T12:20:40.888Z,42.3105
2023-04-23T12:21:42.685Z,35.9373
2023-04-23T12:22:44.193Z,37.1837
2023-04-23T12:23:45.915Z,39.4906
2023-04-23T12:24:47.416Z,38.9166
2023-04-23T12:25:49.193Z,37.5181
2023-04-23T12:26:50.810Z,40.9385